sensor_id;sensor_type;location;lat;lon;timestamp;P1;durP1;ratioP1;P2;durP2;ratioP2
11829;SDS011;5972;42.134;24.718;2023-02-11T00:00:34;31.97;;;16.27;;
11829;SDS011;5972;42.134;24.718;2023-02-11T00:03:05;40.63;;;18.63;;
11829;SDS011;5972;42.134;24.718;2023-02-11T00:05:31;47.07;;;19.87;;
11829;SDS011;5972;42.134;24.718;2023-02-11T00:07:59;36.20;;;18.43;;
11829;SDS011;5972;42.134;24.718;2023-02-11T00:10:26;44.83;;;20.20;;
11829;SDS011;5972;42.134;24.718;2023-02-11T00:12:53;40.87;;;17.80;;
11829;SDS011;5972;42.134;24.718;2023-02-11T00:15:19;37.70;;;18.67;;
11829;SDS011;5972;42.134;24.718;2023-02-11T00:17:46;38.57;;;18.20;;
11829;SDS011;5972;42.134;24.718;2023-02-11T00:20:15;39.90;;;17.90;;
11829;SDS011;5972;42.134;24.718;2023-02-11T00:22:41;38.57;;;17.83;;
11829;SDS011;5972;42.134;24.718;2023-02-11T00:25:08;38.07;;;18.50;;
11829;SDS011;5972;42.134;24.718;2023-02-11T00:27:35;34.53;;;17.30;;
11829;SDS011;5972;42.134;24.718;2023-02-11T00:30:02;40.63;;;17.07;;
11829;SDS011;5972;42.134;24.718;2023-02-11T00:32:30;34.53;;;17.90;;
11829;SDS011;5972;42.134;24.718;2023-02-11T00:34:57;32.13;;;17.60;;
11829;SDS011;5972;42.134;24.718;2023-02-11T00:37:25;31.17;;;16.50;;
11829;SDS011;5972;42.134;24.718;2023-02-11T00:39:53;35.70;;;17.43;;
11829;SDS011;5972;42.134;24.718;2023-02-11T00:42:19;33.07;;;15.73;;
11829;SDS011;5972;42.134;24.718;2023-02-11T00:44:46;31.67;;;16.20;;
11829;SDS011;5972;42.134;24.718;2023-02-11T00:47:13;32.73;;;15.97;;
11829;SDS011;5972;42.134;24.718;2023-02-11T00:49:40;29.03;;;15.10;;
11829;SDS011;5972;42.134;24.718;2023-02-11T00:52:06;31.80;;;16.43;;
11829;SDS011;5972;42.134;24.718;2023-02-11T00:54:35;32.87;;;15.40;;
11829;SDS011;5972;42.134;24.718;2023-02-11T00:57:02;26.83;;;15.03;;
11829;SDS011;5972;42.134;24.718;2023-02-11T00:59:29;32.17;;;15.83;;
11829;SDS011;5972;42.134;24.718;2023-02-11T01:01:55;29.53;;;14.97;;
11829;SDS011;5972;42.134;24.718;2023-02-11T01:04:22;32.40;;;16.37;;
11829;SDS011;5972;42.134;24.718;2023-02-11T01:06:49;28.40;;;14.90;;
11829;SDS011;5972;42.134;24.718;2023-02-11T01:09:16;33.93;;;15.60;;
11829;SDS011;5972;42.134;24.718;2023-02-11T01:11:45;34.20;;;15.70;;
11829;SDS011;5972;42.134;24.718;2023-02-11T01:14:12;36.53;;;16.67;;
11829;SDS011;5972;42.134;24.718;2023-02-11T01:16:39;33.23;;;16.23;;
11829;SDS011;5972;42.134;24.718;2023-02-11T01:19:06;34.27;;;16.73;;
11829;SDS011;5972;42.134;24.718;2023-02-11T01:21:32;31.93;;;16.67;;
11829;SDS011;5972;42.134;24.718;2023-02-11T01:23:59;36.20;;;17.47;;
11829;SDS011;5972;42.134;24.718;2023-02-11T01:26:26;32.93;;;17.80;;
11829;SDS011;5972;42.134;24.718;2023-02-11T01:28:54;30.53;;;15.67;;
11829;SDS011;5972;42.134;24.718;2023-02-11T01:31:21;35.10;;;16.27;;
11829;SDS011;5972;42.134;24.718;2023-02-11T01:33:48;36.83;;;17.97;;
11829;SDS011;5972;42.134;24.718;2023-02-11T01:36:14;32.97;;;16.43;;
11829;SDS011;5972;42.134;24.718;2023-02-11T01:38:41;31.33;;;16.97;;
11829;SDS011;5972;42.134;24.718;2023-02-11T01:41:10;35.40;;;17.20;;
11829;SDS011;5972;42.134;24.718;2023-02-11T01:43:39;33.97;;;14.97;;
11829;SDS011;5972;42.134;24.718;2023-02-11T01:46:25;29.13;;;15.67;;
11829;SDS011;5972;42.134;24.718;2023-02-11T01:49:00;28.57;;;15.90;;
11829;SDS011;5972;42.134;24.718;2023-02-11T01:51:32;27.80;;;15.30;;
11829;SDS011;5972;42.134;24.718;2023-02-11T01:54:02;34.43;;;16.53;;
11829;SDS011;5972;42.134;24.718;2023-02-11T01:56:49;29.13;;;15.30;;
11829;SDS011;5972;42.134;24.718;2023-02-11T01:59:37;29.73;;;15.23;;
11829;SDS011;5972;42.134;24.718;2023-02-11T02:02:11;29.07;;;14.90;;
11829;SDS011;5972;42.134;24.718;2023-02-11T02:04:44;31.50;;;14.80;;
11829;SDS011;5972;42.134;24.718;2023-02-11T02:07:16;29.80;;;14.73;;
11829;SDS011;5972;42.134;24.718;2023-02-11T02:09:51;28.60;;;14.40;;
11829;SDS011;5972;42.134;24.718;2023-02-11T02:12:25;29.67;;;14.57;;
11829;SDS011;5972;42.134;24.718;2023-02-11T02:15:07;31.47;;;15.00;;
11829;SDS011;5972;42.134;24.718;2023-02-11T02:17:45;26.47;;;14.30;;
11829;SDS011;5972;42.134;24.718;2023-02-11T02:20:40;29.47;;;14.27;;
11829;SDS011;5972;42.134;24.718;2023-02-11T02:26:37;29.60;;;16.30;;
11829;SDS011;5972;42.134;24.718;2023-02-11T02:32:31;27.83;;;14.07;;
11829;SDS011;5972;42.134;24.718;2023-02-11T02:35:17;28.27;;;15.07;;
11829;SDS011;5972;42.134;24.718;2023-02-11T02:37:50;25.00;;;14.00;;
11829;SDS011;5972;42.134;24.718;2023-02-11T02:40:27;26.23;;;14.67;;
11829;SDS011;5972;42.134;24.718;2023-02-11T02:42:58;30.50;;;13.90;;
11829;SDS011;5972;42.134;24.718;2023-02-11T02:45:27;28.97;;;14.30;;
11829;SDS011;5972;42.134;24.718;2023-02-11T02:47:55;26.33;;;14.33;;
11829;SDS011;5972;42.134;24.718;2023-02-11T02:50:23;27.33;;;14.10;;
11829;SDS011;5972;42.134;24.718;2023-02-11T02:52:56;27.60;;;13.27;;
11829;SDS011;5972;42.134;24.718;2023-02-11T02:55:35;28.03;;;12.90;;
11829;SDS011;5972;42.134;24.718;2023-02-11T02:58:27;23.40;;;11.57;;
11829;SDS011;5972;42.134;24.718;2023-02-11T03:01:28;26.27;;;12.70;;
11829;SDS011;5972;42.134;24.718;2023-02-11T03:04:07;26.73;;;13.43;;
11829;SDS011;5972;42.134;24.718;2023-02-11T03:06:45;27.37;;;13.63;;
11829;SDS011;5972;42.134;24.718;2023-02-11T03:09:18;25.60;;;12.53;;
11829;SDS011;5972;42.134;24.718;2023-02-11T03:11:47;25.83;;;12.03;;
11829;SDS011;5972;42.134;24.718;2023-02-11T03:14:14;27.30;;;12.73;;
11829;SDS011;5972;42.134;24.718;2023-02-11T03:16:43;25.23;;;12.77;;
11829;SDS011;5972;42.134;24.718;2023-02-11T03:19:14;27.57;;;13.10;;
11829;SDS011;5972;42.134;24.718;2023-02-11T03:21:45;22.23;;;13.10;;
11829;SDS011;5972;42.134;24.718;2023-02-11T03:24:18;27.47;;;13.03;;
11829;SDS011;5972;42.134;24.718;2023-02-11T03:26:50;30.27;;;14.37;;
11829;SDS011;5972;42.134;24.718;2023-02-11T03:29:21;24.43;;;14.67;;
11829;SDS011;5972;42.134;24.718;2023-02-11T03:31:58;26.43;;;13.90;;
11829;SDS011;5972;42.134;24.718;2023-02-11T03:34:31;29.47;;;14.03;;
11829;SDS011;5972;42.134;24.718;2023-02-11T03:37:06;25.70;;;14.10;;
11829;SDS011;5972;42.134;24.718;2023-02-11T03:39:39;28.90;;;14.17;;
11829;SDS011;5972;42.134;24.718;2023-02-11T03:42:11;27.00;;;14.13;;
11829;SDS011;5972;42.134;24.718;2023-02-11T03:44:41;26.20;;;15.43;;
11829;SDS011;5972;42.134;24.718;2023-02-11T03:47:12;27.73;;;14.23;;
11829;SDS011;5972;42.134;24.718;2023-02-11T03:49:42;28.77;;;14.07;;
11829;SDS011;5972;42.134;24.718;2023-02-11T03:52:13;59.27;;;25.90;;
11829;SDS011;5972;42.134;24.718;2023-02-11T03:54:43;79.97;;;33.47;;
11829;SDS011;5972;42.134;24.718;2023-02-11T03:57:14;46.07;;;23.07;;
11829;SDS011;5972;42.134;24.718;2023-02-11T03:59:50;45.70;;;19.67;;
11829;SDS011;5972;42.134;24.718;2023-02-11T04:02:19;39.30;;;18.60;;
11829;SDS011;5972;42.134;24.718;2023-02-11T04:04:47;38.20;;;17.07;;
11829;SDS011;5972;42.134;24.718;2023-02-11T04:07:14;29.50;;;16.40;;
11829;SDS011;5972;42.134;24.718;2023-02-11T04:09:41;28.30;;;15.90;;
11829;SDS011;5972;42.134;24.718;2023-02-11T04:12:08;38.33;;;16.13;;
11829;SDS011;5972;42.134;24.718;2023-02-11T04:14:35;33.13;;;17.27;;
11829;SDS011;5972;42.134;24.718;2023-02-11T04:17:02;40.67;;;18.77;;
11829;SDS011;5972;42.134;24.718;2023-02-11T04:19:29;34.07;;;17.57;;
11829;SDS011;5972;42.134;24.718;2023-02-11T04:22:00;38.13;;;18.30;;
11829;SDS011;5972;42.134;24.718;2023-02-11T04:24:27;35.20;;;18.03;;
11829;SDS011;5972;42.134;24.718;2023-02-11T04:26:54;35.20;;;18.70;;
11829;SDS011;5972;42.134;24.718;2023-02-11T04:29:21;42.70;;;19.43;;
11829;SDS011;5972;42.134;24.718;2023-02-11T04:31:48;37.20;;;19.00;;
11829;SDS011;5972;42.134;24.718;2023-02-11T04:34:16;36.93;;;18.97;;
11829;SDS011;5972;42.134;24.718;2023-02-11T04:36:43;38.73;;;17.03;;
11829;SDS011;5972;42.134;24.718;2023-02-11T04:39:11;36.13;;;17.20;;
11829;SDS011;5972;42.134;24.718;2023-02-11T04:41:38;31.37;;;17.03;;
11829;SDS011;5972;42.134;24.718;2023-02-11T04:44:07;30.43;;;16.10;;
11829;SDS011;5972;42.134;24.718;2023-02-11T04:46:34;31.13;;;17.43;;
11829;SDS011;5972;42.134;24.718;2023-02-11T04:49:00;34.00;;;16.93;;
11829;SDS011;5972;42.134;24.718;2023-02-11T04:51:27;33.13;;;17.87;;
11829;SDS011;5972;42.134;24.718;2023-02-11T04:53:54;36.20;;;16.30;;
11829;SDS011;5972;42.134;24.718;2023-02-11T04:56:22;34.30;;;17.00;;
11829;SDS011;5972;42.134;24.718;2023-02-11T04:58:49;34.00;;;17.50;;
11829;SDS011;5972;42.134;24.718;2023-02-11T05:01:16;34.73;;;17.20;;
11829;SDS011;5972;42.134;24.718;2023-02-11T05:03:43;35.90;;;16.83;;
11829;SDS011;5972;42.134;24.718;2023-02-11T05:06:10;31.83;;;16.73;;
11829;SDS011;5972;42.134;24.718;2023-02-11T05:08:37;31.30;;;16.43;;
11829;SDS011;5972;42.134;24.718;2023-02-11T05:11:03;32.90;;;16.60;;
11829;SDS011;5972;42.134;24.718;2023-02-11T05:13:32;33.17;;;18.33;;
11829;SDS011;5972;42.134;24.718;2023-02-11T05:15:59;47.37;;;19.47;;
11829;SDS011;5972;42.134;24.718;2023-02-11T05:18:26;39.13;;;18.60;;
11829;SDS011;5972;42.134;24.718;2023-02-11T05:20:53;40.70;;;18.10;;
11829;SDS011;5972;42.134;24.718;2023-02-11T05:23:20;39.97;;;18.03;;
11829;SDS011;5972;42.134;24.718;2023-02-11T05:25:46;36.53;;;16.87;;
11829;SDS011;5972;42.134;24.718;2023-02-11T05:28:13;37.43;;;15.70;;
11829;SDS011;5972;42.134;24.718;2023-02-11T05:30:41;35.40;;;15.40;;
11829;SDS011;5972;42.134;24.718;2023-02-11T05:33:08;26.87;;;15.60;;
11829;SDS011;5972;42.134;24.718;2023-02-11T05:35:37;33.73;;;16.77;;
11829;SDS011;5972;42.134;24.718;2023-02-11T05:38:03;32.40;;;15.97;;
11829;SDS011;5972;42.134;24.718;2023-02-11T05:40:30;30.90;;;15.57;;
11829;SDS011;5972;42.134;24.718;2023-02-11T05:43:00;34.57;;;15.20;;
11829;SDS011;5972;42.134;24.718;2023-02-11T05:45:27;30.67;;;15.30;;
11829;SDS011;5972;42.134;24.718;2023-02-11T05:47:55;34.70;;;15.33;;
11829;SDS011;5972;42.134;24.718;2023-02-11T05:50:22;22.13;;;12.20;;
11829;SDS011;5972;42.134;24.718;2023-02-11T05:52:51;21.90;;;13.20;;
11829;SDS011;5972;42.134;24.718;2023-02-11T05:55:18;24.07;;;12.17;;
11829;SDS011;5972;42.134;24.718;2023-02-11T05:57:44;25.83;;;14.10;;
11829;SDS011;5972;42.134;24.718;2023-02-11T06:00:13;30.10;;;14.63;;
11829;SDS011;5972;42.134;24.718;2023-02-11T06:02:40;24.13;;;13.00;;
11829;SDS011;5972;42.134;24.718;2023-02-11T06:05:09;24.97;;;14.47;;
11829;SDS011;5972;42.134;24.718;2023-02-11T06:07:36;27.83;;;14.83;;
11829;SDS011;5972;42.134;24.718;2023-02-11T06:10:03;27.87;;;14.20;;
11829;SDS011;5972;42.134;24.718;2023-02-11T06:12:31;25.83;;;14.30;;
11829;SDS011;5972;42.134;24.718;2023-02-11T06:14:57;27.00;;;13.63;;
11829;SDS011;5972;42.134;24.718;2023-02-11T06:17:26;34.53;;;14.80;;
11829;SDS011;5972;42.134;24.718;2023-02-11T06:19:57;25.87;;;13.87;;
11829;SDS011;5972;42.134;24.718;2023-02-11T06:22:36;28.33;;;14.10;;
11829;SDS011;5972;42.134;24.718;2023-02-11T06:25:07;31.17;;;13.67;;
11829;SDS011;5972;42.134;24.718;2023-02-11T06:27:37;22.87;;;13.43;;
11829;SDS011;5972;42.134;24.718;2023-02-11T06:30:07;27.10;;;12.80;;
11829;SDS011;5972;42.134;24.718;2023-02-11T06:32:52;27.33;;;13.40;;
11829;SDS011;5972;42.134;24.718;2023-02-11T06:35:39;28.13;;;13.23;;
11829;SDS011;5972;42.134;24.718;2023-02-11T06:38:07;28.03;;;13.53;;
11829;SDS011;5972;42.134;24.718;2023-02-11T06:40:36;29.97;;;15.47;;
11829;SDS011;5972;42.134;24.718;2023-02-11T06:43:03;26.53;;;14.53;;
11829;SDS011;5972;42.134;24.718;2023-02-11T06:45:29;31.07;;;14.17;;
11829;SDS011;5972;42.134;24.718;2023-02-11T06:47:56;23.17;;;12.83;;
11829;SDS011;5972;42.134;24.718;2023-02-11T06:50:23;23.10;;;12.70;;
11829;SDS011;5972;42.134;24.718;2023-02-11T06:52:50;15.83;;;10.07;;
11829;SDS011;5972;42.134;24.718;2023-02-11T06:55:20;18.03;;;11.03;;
11829;SDS011;5972;42.134;24.718;2023-02-11T06:57:48;22.13;;;12.50;;
11829;SDS011;5972;42.134;24.718;2023-02-11T07:00:15;24.77;;;12.13;;
11829;SDS011;5972;42.134;24.718;2023-02-11T07:02:42;24.47;;;12.30;;
11829;SDS011;5972;42.134;24.718;2023-02-11T07:05:12;22.30;;;12.43;;
11829;SDS011;5972;42.134;24.718;2023-02-11T07:07:38;23.30;;;11.73;;
11829;SDS011;5972;42.134;24.718;2023-02-11T07:10:11;27.20;;;12.73;;
11829;SDS011;5972;42.134;24.718;2023-02-11T07:12:40;21.73;;;12.97;;
11829;SDS011;5972;42.134;24.718;2023-02-11T07:15:09;27.50;;;13.97;;
11829;SDS011;5972;42.134;24.718;2023-02-11T07:17:36;27.73;;;13.30;;
11829;SDS011;5972;42.134;24.718;2023-02-11T07:20:05;23.07;;;13.77;;
11829;SDS011;5972;42.134;24.718;2023-02-11T07:22:36;24.83;;;14.93;;
11829;SDS011;5972;42.134;24.718;2023-02-11T07:25:05;22.83;;;14.13;;
11829;SDS011;5972;42.134;24.718;2023-02-11T07:27:32;20.13;;;13.57;;
11829;SDS011;5972;42.134;24.718;2023-02-11T07:30:00;22.97;;;14.20;;
11829;SDS011;5972;42.134;24.718;2023-02-11T07:32:28;20.50;;;13.87;;
11829;SDS011;5972;42.134;24.718;2023-02-11T07:35:00;20.73;;;13.90;;
11829;SDS011;5972;42.134;24.718;2023-02-11T07:37:27;17.98;;;12.93;;
11829;SDS011;5972;42.134;24.718;2023-02-11T07:39:54;21.40;;;14.70;;
11829;SDS011;5972;42.134;24.718;2023-02-11T07:42:21;22.50;;;14.32;;
11829;SDS011;5972;42.134;24.718;2023-02-11T07:44:48;18.05;;;13.13;;
11829;SDS011;5972;42.134;24.718;2023-02-11T07:47:18;18.65;;;13.23;;
11829;SDS011;5972;42.134;24.718;2023-02-11T07:49:48;18.20;;;12.48;;
11829;SDS011;5972;42.134;24.718;2023-02-11T07:52:17;16.35;;;11.77;;
11829;SDS011;5972;42.134;24.718;2023-02-11T07:54:50;17.88;;;12.63;;
11829;SDS011;5972;42.134;24.718;2023-02-11T07:57:27;17.48;;;12.35;;
11829;SDS011;5972;42.134;24.718;2023-02-11T07:59:54;17.55;;;11.85;;
11829;SDS011;5972;42.134;24.718;2023-02-11T08:02:22;18.23;;;13.20;;
11829;SDS011;5972;42.134;24.718;2023-02-11T08:04:51;17.83;;;12.18;;
11829;SDS011;5972;42.134;24.718;2023-02-11T08:07:18;15.05;;;11.70;;
11829;SDS011;5972;42.134;24.718;2023-02-11T08:09:50;17.27;;;11.93;;
11829;SDS011;5972;42.134;24.718;2023-02-11T08:12:18;16.42;;;12.35;;
11829;SDS011;5972;42.134;24.718;2023-02-11T08:14:45;19.63;;;11.90;;
11829;SDS011;5972;42.134;24.718;2023-02-11T08:17:18;21.20;;;13.25;;
11829;SDS011;5972;42.134;24.718;2023-02-11T08:19:54;18.17;;;13.20;;
11829;SDS011;5972;42.134;24.718;2023-02-11T08:22:22;17.70;;;12.77;;
11829;SDS011;5972;42.134;24.718;2023-02-11T08:24:52;21.90;;;13.48;;
11829;SDS011;5972;42.134;24.718;2023-02-11T08:27:24;22.30;;;13.55;;
11829;SDS011;5972;42.134;24.718;2023-02-11T08:29:51;19.02;;;13.40;;
11829;SDS011;5972;42.134;24.718;2023-02-11T08:32:19;18.58;;;13.90;;
11829;SDS011;5972;42.134;24.718;2023-02-11T08:34:47;22.73;;;13.63;;
11829;SDS011;5972;42.134;24.718;2023-02-11T08:37:19;28.73;;;15.52;;
11829;SDS011;5972;42.134;24.718;2023-02-11T08:39:47;21.15;;;15.10;;
11829;SDS011;5972;42.134;24.718;2023-02-11T08:42:14;23.85;;;15.18;;
11829;SDS011;5972;42.134;24.718;2023-02-11T08:44:45;21.33;;;14.07;;
11829;SDS011;5972;42.134;24.718;2023-02-11T08:47:15;20.33;;;14.85;;
11829;SDS011;5972;42.134;24.718;2023-02-11T08:49:45;19.90;;;14.40;;
11829;SDS011;5972;42.134;24.718;2023-02-11T08:52:19;21.55;;;15.32;;
11829;SDS011;5972;42.134;24.718;2023-02-11T08:54:46;21.33;;;14.88;;
11829;SDS011;5972;42.134;24.718;2023-02-11T08:57:13;24.35;;;15.07;;
11829;SDS011;5972;42.134;24.718;2023-02-11T08:59:39;25.52;;;15.85;;
11829;SDS011;5972;42.134;24.718;2023-02-11T09:02:12;23.75;;;14.30;;
11829;SDS011;5972;42.134;24.718;2023-02-11T09:05:13;18.45;;;12.98;;
11829;SDS011;5972;42.134;24.718;2023-02-11T09:08:03;18.25;;;13.43;;
11829;SDS011;5972;42.134;24.718;2023-02-11T09:10:36;12.40;;;10.68;;
11829;SDS011;5972;42.134;24.718;2023-02-11T09:13:12;15.15;;;10.55;;
11829;SDS011;5972;42.134;24.718;2023-02-11T09:15:39;15.07;;;10.32;;
11829;SDS011;5972;42.134;24.718;2023-02-11T09:18:06;15.32;;;11.82;;
11829;SDS011;5972;42.134;24.718;2023-02-11T09:20:35;13.57;;;11.02;;
11829;SDS011;5972;42.134;24.718;2023-02-11T09:23:04;13.30;;;10.35;;
11829;SDS011;5972;42.134;24.718;2023-02-11T09:25:33;13.93;;;10.05;;
11829;SDS011;5972;42.134;24.718;2023-02-11T09:28:03;14.02;;;10.95;;
11829;SDS011;5972;42.134;24.718;2023-02-11T09:30:31;13.70;;;10.32;;
11829;SDS011;5972;42.134;24.718;2023-02-11T09:32:59;15.00;;;10.95;;
11829;SDS011;5972;42.134;24.718;2023-02-11T09:35:26;14.63;;;11.00;;
11829;SDS011;5972;42.134;24.718;2023-02-11T09:37:58;13.55;;;10.32;;
11829;SDS011;5972;42.134;24.718;2023-02-11T09:40:27;16.95;;;10.90;;
11829;SDS011;5972;42.134;24.718;2023-02-11T09:42:56;14.95;;;10.43;;
11829;SDS011;5972;42.134;24.718;2023-02-11T09:45:34;11.85;;;9.57;;
11829;SDS011;5972;42.134;24.718;2023-02-11T09:48:03;12.30;;;9.75;;
11829;SDS011;5972;42.134;24.718;2023-02-11T09:50:37;14.57;;;9.40;;
11829;SDS011;5972;42.134;24.718;2023-02-11T09:53:10;13.95;;;11.05;;
11829;SDS011;5972;42.134;24.718;2023-02-11T09:55:52;19.83;;;11.40;;
11829;SDS011;5972;42.134;24.718;2023-02-11T09:58:25;18.83;;;12.73;;
11829;SDS011;5972;42.134;24.718;2023-02-11T10:00:57;16.15;;;11.70;;
11829;SDS011;5972;42.134;24.718;2023-02-11T10:03:52;17.58;;;12.40;;
11829;SDS011;5972;42.134;24.718;2023-02-11T10:06:34;14.02;;;11.68;;
11829;SDS011;5972;42.134;24.718;2023-02-11T10:09:17;15.95;;;11.38;;
11829;SDS011;5972;42.134;24.718;2023-02-11T10:11:57;14.73;;;11.02;;
11829;SDS011;5972;42.134;24.718;2023-02-11T10:14:48;13.27;;;10.13;;
11829;SDS011;5972;42.134;24.718;2023-02-11T10:17:55;16.27;;;10.10;;
11829;SDS011;5972;42.134;24.718;2023-02-11T10:20:43;16.10;;;10.52;;
11829;SDS011;5972;42.134;24.718;2023-02-11T10:23:29;15.85;;;10.75;;
11829;SDS011;5972;42.134;24.718;2023-02-11T10:26:01;16.13;;;10.80;;
11829;SDS011;5972;42.134;24.718;2023-02-11T10:28:39;14.40;;;10.48;;
11829;SDS011;5972;42.134;24.718;2023-02-11T10:31:19;13.88;;;10.25;;
11829;SDS011;5972;42.134;24.718;2023-02-11T10:33:52;10.93;;;8.85;;
11829;SDS011;5972;42.134;24.718;2023-02-11T10:36:25;15.02;;;10.55;;
11829;SDS011;5972;42.134;24.718;2023-02-11T10:38:56;15.10;;;9.90;;
11829;SDS011;5972;42.134;24.718;2023-02-11T10:41:31;13.57;;;9.95;;
11829;SDS011;5972;42.134;24.718;2023-02-11T10:44:06;16.25;;;11.43;;
11829;SDS011;5972;42.134;24.718;2023-02-11T10:46:39;14.13;;;10.50;;
11829;SDS011;5972;42.134;24.718;2023-02-11T10:49:07;13.18;;;10.52;;
11829;SDS011;5972;42.134;24.718;2023-02-11T10:51:36;12.93;;;9.98;;
11829;SDS011;5972;42.134;24.718;2023-02-11T10:54:16;16.17;;;9.85;;
11829;SDS011;5972;42.134;24.718;2023-02-11T10:56:46;16.33;;;10.05;;
11829;SDS011;5972;42.134;24.718;2023-02-11T10:59:18;11.43;;;9.07;;
11829;SDS011;5972;42.134;24.718;2023-02-11T11:01:52;13.00;;;9.25;;
11829;SDS011;5972;42.134;24.718;2023-02-11T11:04:47;15.35;;;9.95;;
11829;SDS011;5972;42.134;24.718;2023-02-11T11:07:15;13.65;;;9.85;;
11829;SDS011;5972;42.134;24.718;2023-02-11T11:09:48;11.68;;;9.40;;
11829;SDS011;5972;42.134;24.718;2023-02-11T11:12:32;13.88;;;9.82;;
11829;SDS011;5972;42.134;24.718;2023-02-11T11:15:12;11.52;;;8.90;;
11829;SDS011;5972;42.134;24.718;2023-02-11T11:17:46;13.02;;;9.80;;
11829;SDS011;5972;42.134;24.718;2023-02-11T11:20:14;12.85;;;9.43;;
11829;SDS011;5972;42.134;24.718;2023-02-11T11:22:51;12.25;;;8.60;;
11829;SDS011;5972;42.134;24.718;2023-02-11T11:25:37;11.98;;;8.40;;
11829;SDS011;5972;42.134;24.718;2023-02-11T11:28:16;13.00;;;9.20;;
11829;SDS011;5972;42.134;24.718;2023-02-11T11:30:50;13.02;;;8.85;;
11829;SDS011;5972;42.134;24.718;2023-02-11T11:33:20;11.20;;;8.40;;
11829;SDS011;5972;42.134;24.718;2023-02-11T11:35:56;12.40;;;8.50;;
11829;SDS011;5972;42.134;24.718;2023-02-11T11:38:26;12.48;;;8.43;;
11829;SDS011;5972;42.134;24.718;2023-02-11T11:44:01;13.15;;;7.93;;
11829;SDS011;5972;42.134;24.718;2023-02-11T11:46:33;11.43;;;8.15;;
11829;SDS011;5972;42.134;24.718;2023-02-11T11:49:03;13.05;;;8.90;;
11829;SDS011;5972;42.134;24.718;2023-02-11T11:51:38;11.50;;;8.30;;
11829;SDS011;5972;42.134;24.718;2023-02-11T11:54:10;14.30;;;8.68;;
11829;SDS011;5972;42.134;24.718;2023-02-11T11:56:40;12.95;;;8.90;;
11829;SDS011;5972;42.134;24.718;2023-02-11T11:59:12;14.43;;;9.70;;
11829;SDS011;5972;42.134;24.718;2023-02-11T12:01:45;12.40;;;8.35;;
11829;SDS011;5972;42.134;24.718;2023-02-11T12:07:35;12.77;;;7.85;;
11829;SDS011;5972;42.134;24.718;2023-02-11T12:13:22;13.73;;;8.90;;
11829;SDS011;5972;42.134;24.718;2023-02-11T12:16:01;8.75;;;7.07;;
11829;SDS011;5972;42.134;24.718;2023-02-11T12:18:47;11.35;;;8.02;;
11829;SDS011;5972;42.134;24.718;2023-02-11T12:21:33;12.15;;;7.40;;
11829;SDS011;5972;42.134;24.718;2023-02-11T12:24:15;11.70;;;7.93;;
11829;SDS011;5972;42.134;24.718;2023-02-11T12:26:52;12.20;;;7.35;;
11829;SDS011;5972;42.134;24.718;2023-02-11T12:29:26;9.65;;;6.47;;
11829;SDS011;5972;42.134;24.718;2023-02-11T12:32:03;11.85;;;7.55;;
11829;SDS011;5972;42.134;24.718;2023-02-11T12:34:47;9.45;;;6.93;;
11829;SDS011;5972;42.134;24.718;2023-02-11T12:37:43;12.68;;;8.35;;
11829;SDS011;5972;42.134;24.718;2023-02-11T12:40:31;13.27;;;8.00;;
11829;SDS011;5972;42.134;24.718;2023-02-11T12:43:11;9.52;;;7.40;;
11829;SDS011;5972;42.134;24.718;2023-02-11T12:45:59;15.80;;;8.13;;
11829;SDS011;5972;42.134;24.718;2023-02-11T12:48:37;11.52;;;7.75;;
11829;SDS011;5972;42.134;24.718;2023-02-11T12:51:18;10.40;;;7.43;;
11829;SDS011;5972;42.134;24.718;2023-02-11T12:56:48;10.23;;;6.97;;
11829;SDS011;5972;42.134;24.718;2023-02-11T12:59:22;12.90;;;8.20;;
11829;SDS011;5972;42.134;24.718;2023-02-11T13:02:20;14.13;;;8.10;;
11829;SDS011;5972;42.134;24.718;2023-02-11T13:04:54;13.23;;;7.23;;
11829;SDS011;5972;42.134;24.718;2023-02-11T13:07:28;11.07;;;7.30;;
11829;SDS011;5972;42.134;24.718;2023-02-11T13:10:02;11.07;;;7.13;;
11829;SDS011;5972;42.134;24.718;2023-02-11T13:12:46;10.15;;;7.20;;
11829;SDS011;5972;42.134;24.718;2023-02-11T13:15:36;15.90;;;8.20;;
11829;SDS011;5972;42.134;24.718;2023-02-11T13:18:15;11.77;;;7.75;;
11829;SDS011;5972;42.134;24.718;2023-02-11T13:20:55;15.07;;;8.15;;
11829;SDS011;5972;42.134;24.718;2023-02-11T13:23:33;10.30;;;7.40;;
11829;SDS011;5972;42.134;24.718;2023-02-11T13:26:09;13.47;;;7.27;;
11829;SDS011;5972;42.134;24.718;2023-02-11T13:28:47;9.80;;;7.50;;
11829;SDS011;5972;42.134;24.718;2023-02-11T13:31:19;11.63;;;7.60;;
11829;SDS011;5972;42.134;24.718;2023-02-11T13:33:52;10.30;;;7.27;;
11829;SDS011;5972;42.134;24.718;2023-02-11T13:36:20;11.43;;;7.53;;
11829;SDS011;5972;42.134;24.718;2023-02-11T13:39:01;12.17;;;8.30;;
11829;SDS011;5972;42.134;24.718;2023-02-11T13:41:36;15.23;;;8.07;;
11829;SDS011;5972;42.134;24.718;2023-02-11T13:44:21;13.63;;;8.40;;
11829;SDS011;5972;42.134;24.718;2023-02-11T13:46:59;10.87;;;7.53;;
11829;SDS011;5972;42.134;24.718;2023-02-11T13:49:30;13.47;;;7.13;;
11829;SDS011;5972;42.134;24.718;2023-02-11T13:52:00;11.33;;;7.10;;
11829;SDS011;5972;42.134;24.718;2023-02-11T13:54:33;10.40;;;6.80;;
11829;SDS011;5972;42.134;24.718;2023-02-11T14:00:05;10.25;;;7.22;;
11829;SDS011;5972;42.134;24.718;2023-02-11T14:02:59;22.52;;;18.42;;
11829;SDS011;5972;42.134;24.718;2023-02-11T14:06:26;17.67;;;9.98;;
11829;SDS011;5972;42.134;24.718;2023-02-11T14:09:37;9.95;;;7.25;;
11829;SDS011;5972;42.134;24.718;2023-02-11T14:12:22;10.68;;;6.80;;
11829;SDS011;5972;42.134;24.718;2023-02-11T14:14:58;16.08;;;8.38;;
11829;SDS011;5972;42.134;24.718;2023-02-11T14:17:40;12.98;;;7.95;;
11829;SDS011;5972;42.134;24.718;2023-02-11T14:23:03;13.38;;;6.40;;
11829;SDS011;5972;42.134;24.718;2023-02-11T14:25:52;10.95;;;6.85;;
11829;SDS011;5972;42.134;24.718;2023-02-11T14:28:28;8.77;;;6.80;;
11829;SDS011;5972;42.134;24.718;2023-02-11T14:30:59;11.38;;;7.00;;
11829;SDS011;5972;42.134;24.718;2023-02-11T14:33:41;10.03;;;6.80;;
11829;SDS011;5972;42.134;24.718;2023-02-11T14:39:23;9.53;;;7.27;;
11829;SDS011;5972;42.134;24.718;2023-02-11T14:42:06;15.00;;;8.10;;
11829;SDS011;5972;42.134;24.718;2023-02-11T14:44:43;13.63;;;7.80;;
11829;SDS011;5972;42.134;24.718;2023-02-11T14:47:12;12.53;;;7.27;;
11829;SDS011;5972;42.134;24.718;2023-02-11T14:49:44;9.50;;;6.73;;
11829;SDS011;5972;42.134;24.718;2023-02-11T14:52:15;9.63;;;6.90;;
11829;SDS011;5972;42.134;24.718;2023-02-11T14:54:50;9.70;;;7.03;;
11829;SDS011;5972;42.134;24.718;2023-02-11T14:57:21;11.13;;;6.97;;
11829;SDS011;5972;42.134;24.718;2023-02-11T14:59:56;11.90;;;7.40;;
11829;SDS011;5972;42.134;24.718;2023-02-11T15:02:27;9.83;;;7.33;;
11829;SDS011;5972;42.134;24.718;2023-02-11T15:05:14;10.37;;;7.57;;
11829;SDS011;5972;42.134;24.718;2023-02-11T15:07:53;13.20;;;8.53;;
11829;SDS011;5972;42.134;24.718;2023-02-11T15:10:58;10.43;;;7.23;;
11829;SDS011;5972;42.134;24.718;2023-02-11T15:13:22;11.33;;;6.93;;
11829;SDS011;5972;42.134;24.718;2023-02-11T15:15:57;9.83;;;7.23;;
11829;SDS011;5972;42.134;24.718;2023-02-11T15:18:34;10.23;;;7.13;;
11829;SDS011;5972;42.134;24.718;2023-02-11T15:21:07;12.33;;;7.00;;
11829;SDS011;5972;42.134;24.718;2023-02-11T15:23:37;14.83;;;8.23;;
11829;SDS011;5972;42.134;24.718;2023-02-11T15:26:11;16.43;;;9.97;;